createdAt,value
2018-12-13T00:01:40.121Z,0.30
2018-12-13T00:04:07.604Z,0.20
2018-12-13T00:06:35.333Z,0.40
2018-12-13T00:09:03.149Z,0.60
2018-12-13T00:11:30.635Z,0.40
2018-12-13T00:13:58.714Z,0.40
2018-12-13T00:16:26.213Z,0.20
2018-12-13T00:18:53.765Z,0.10
2018-12-13T00:21:21.261Z,0.50
2018-12-13T00:23:48.739Z,0.70
2018-12-13T00:26:16.215Z,0.80
2018-12-13T00:28:43.713Z,0.50
2018-12-13T00:31:11.195Z,0.50
2018-12-13T00:33:38.687Z,0.90
2018-12-13T00:36:06.165Z,0.70
2018-12-13T00:38:33.645Z,0.50
2018-12-13T00:41:01.849Z,0.30
2018-12-13T00:43:29.335Z,0.40
2018-12-13T00:45:56.798Z,0.40
2018-12-13T00:48:24.485Z,0.30
2018-12-13T00:50:51.968Z,0.50
2018-12-13T00:53:19.441Z,0.70
2018-12-13T00:55:46.923Z,0.60
2018-12-13T00:58:14.397Z,0.90
2018-12-13T01:00:41.886Z,1.00
2018-12-13T01:03:09.367Z,0.80
2018-12-13T01:05:36.850Z,0.60
2018-12-13T01:08:04.321Z,0.70
2018-12-13T01:10:31.786Z,0.70
2018-12-13T01:12:59.276Z,0.80
2018-12-13T01:15:28.704Z,0.90
2018-12-13T01:17:56.198Z,0.70
2018-12-13T01:20:23.670Z,0.80
2018-12-13T01:22:51.164Z,0.60
2018-12-13T01:25:18.637Z,0.80
2018-12-13T01:27:46.101Z,0.70
2018-12-13T01:30:13.581Z,0.50
2018-12-13T01:32:41.049Z,0.50
2018-12-13T01:35:08.519Z,0.50
2018-12-13T01:37:35.994Z,0.50
2018-12-13T01:40:04.217Z,0.70
2018-12-13T01:42:31.755Z,0.70
2018-12-13T01:44:59.237Z,0.80
2018-12-13T01:47:26.737Z,0.80
2018-12-13T01:49:54.242Z,0.80
2018-12-13T01:52:21.736Z,0.90
2018-12-13T01:54:49.213Z,0.90
2018-12-13T01:57:16.693Z,1.00
2018-12-13T01:59:44.169Z,1.10
2018-12-13T02:02:11.714Z,1.20
2018-12-13T02:04:39.246Z,1.00
2018-12-13T02:07:06.771Z,1.10
2018-12-13T02:09:34.287Z,1.10
2018-12-13T02:12:01.774Z,0.90
2018-12-13T02:14:29.274Z,0.90
2018-12-13T02:16:56.767Z,0.80
2018-12-13T02:19:24.256Z,1.00
2018-12-13T02:21:51.752Z,1.10
2018-12-13T02:24:19.208Z,1.50
2018-12-13T02:26:46.770Z,0.80
2018-12-13T02:29:14.244Z,0.80
2018-12-13T02:31:41.727Z,1.00
2018-12-13T02:34:09.207Z,0.90
2018-12-13T02:36:36.677Z,1.00
2018-12-13T02:39:05.388Z,0.90
2018-12-13T02:41:32.926Z,1.00
2018-12-13T02:44:02.249Z,1.00
2018-12-13T02:46:29.723Z,1.20
2018-12-13T02:49:04.766Z,1.20
2018-12-13T02:51:32.240Z,0.90
2018-12-13T02:53:59.743Z,0.80
2018-12-13T02:56:27.268Z,0.90
2018-12-13T02:58:54.806Z,0.90
2018-12-13T03:01:22.294Z,0.90
2018-12-13T03:03:49.765Z,0.90
2018-12-13T03:06:17.254Z,0.80
2018-12-13T03:08:44.732Z,0.90
2018-12-13T03:11:12.204Z,1.00
2018-12-13T03:13:40.386Z,0.90
2018-12-13T03:16:07.898Z,0.80
2018-12-13T03:18:35.700Z,0.80
2018-12-13T03:21:03.216Z,1.00
2018-12-13T03:23:30.711Z,0.80
2018-12-13T03:25:58.188Z,0.90
2018-12-13T03:28:25.804Z,0.80
2018-12-13T03:30:53.269Z,0.80
2018-12-13T03:33:20.780Z,0.70
2018-12-13T03:35:48.355Z,0.70
2018-12-13T03:38:15.949Z,0.60
2018-12-13T03:40:43.978Z,0.70
2018-12-13T03:43:11.456Z,1.00
2018-12-13T03:45:39.662Z,1.00
2018-12-13T03:48:07.139Z,1.10
2018-12-13T03:50:34.624Z,0.90
2018-12-13T03:53:02.101Z,0.60
2018-12-13T03:55:29.580Z,0.60
2018-12-13T03:57:57.047Z,0.90
2018-12-13T04:00:24.548Z,0.60
2018-12-13T04:02:52.043Z,0.70
2018-12-13T04:05:19.519Z,0.70
2018-12-13T04:07:46.985Z,0.90
2018-12-13T04:10:14.455Z,0.80
2018-12-13T04:12:41.945Z,0.90
2018-12-13T04:15:10.142Z,0.80
2018-12-13T04:17:37.650Z,0.60
2018-12-13T04:20:05.339Z,0.60
2018-12-13T04:22:32.797Z,0.60
2018-12-13T04:25:00.301Z,0.80
2018-12-13T04:27:27.835Z,0.70
2018-12-13T04:29:55.327Z,0.60
2018-12-13T04:32:22.819Z,0.50
2018-12-13T04:34:50.320Z,0.50
2018-12-13T04:37:17.951Z,0.50
2018-12-13T04:39:46.369Z,0.40
2018-12-13T04:42:14.093Z,0.30
2018-12-13T04:44:41.592Z,0.40
2018-12-13T04:47:09.071Z,0.60
2018-12-13T04:49:36.600Z,0.50
2018-12-13T04:52:04.561Z,0.40
2018-12-13T04:54:32.060Z,0.50
2018-12-13T04:56:59.518Z,0.60
2018-12-13T04:59:27.006Z,0.60
2018-12-13T05:01:54.625Z,0.60
2018-12-13T05:04:22.110Z,0.70
2018-12-13T05:06:49.587Z,0.70
2018-12-13T05:09:17.554Z,0.60
2018-12-13T05:11:45.024Z,0.70
2018-12-13T05:14:12.522Z,0.90
2018-12-13T05:16:40.159Z,0.80
2018-12-13T05:19:07.650Z,0.90
2018-12-13T05:21:35.104Z,1.00
2018-12-13T05:24:02.594Z,1.10
2018-12-13T05:26:30.196Z,1.10
2018-12-13T05:28:57.676Z,0.90
2018-12-13T05:31:25.152Z,1.00
2018-12-13T05:33:52.639Z,1.10
2018-12-13T05:36:20.106Z,1.20
2018-12-13T05:38:47.589Z,1.00
2018-12-13T05:41:15.061Z,1.00
2018-12-13T05:43:42.547Z,0.90
2018-12-13T05:46:10.594Z,0.90
2018-12-13T05:48:38.061Z,1.10
2018-12-13T05:51:05.550Z,1.00
2018-12-13T05:53:33.016Z,1.00
2018-12-13T05:56:00.533Z,1.20
2018-12-13T05:58:28.047Z,1.20
2018-12-13T06:00:56.801Z,0.90
2018-12-13T06:03:24.705Z,0.90
2018-12-13T06:05:52.469Z,0.90
2018-12-13T06:08:19.933Z,1.10
2018-12-13T06:10:47.485Z,1.00
2018-12-13T06:13:14.971Z,1.00
2018-12-13T06:15:42.445Z,0.90
2018-12-13T06:18:09.935Z,1.00
2018-12-13T06:20:37.433Z,0.90
2018-12-13T06:23:05.222Z,0.90
2018-12-13T06:25:32.930Z,0.90
2018-12-13T06:28:00.427Z,0.80
2018-12-13T06:30:27.894Z,0.90
2018-12-13T06:32:55.367Z,0.80
2018-12-13T06:35:22.866Z,0.90
2018-12-13T06:37:50.335Z,1.00
2018-12-13T06:40:17.852Z,0.80
2018-12-13T06:42:45.310Z,0.80
2018-12-13T06:45:12.910Z,0.90
2018-12-13T06:47:40.576Z,1.10
2018-12-13T06:50:08.182Z,1.20
2018-12-13T06:52:35.644Z,1.20
2018-12-13T06:55:03.154Z,1.20
2018-12-13T06:57:30.641Z,0.90
2018-12-13T06:59:58.141Z,1.20
2018-12-13T07:02:25.628Z,1.40
2018-12-13T07:04:53.108Z,1.40
2018-12-13T07:07:21.276Z,1.30
2018-12-13T07:09:48.757Z,1.30
2018-12-13T07:12:16.247Z,1.30
2018-12-13T07:14:43.706Z,1.30
2018-12-13T07:17:11.189Z,1.10
2018-12-13T07:19:38.725Z,1.00
2018-12-13T07:22:06.209Z,1.40
2018-12-13T07:24:33.715Z,1.50
2018-12-13T07:27:01.215Z,1.20
2018-12-13T07:29:28.722Z,1.30
2018-12-13T07:31:56.192Z,0.90
2018-12-13T07:34:23.668Z,1.20
2018-12-13T07:36:51.267Z,1.30
2018-12-13T07:39:18.789Z,1.10
2018-12-13T07:41:46.270Z,1.60
2018-12-13T07:44:13.749Z,1.50
2018-12-13T07:46:41.245Z,1.40
2018-12-13T07:49:08.726Z,1.30
2018-12-13T07:51:36.191Z,1.50
2018-12-13T07:54:03.753Z,1.20
2018-12-13T07:56:31.250Z,1.30
2018-12-13T07:58:58.730Z,1.50
2018-12-13T08:01:26.209Z,1.30
2018-12-13T08:03:53.705Z,1.20
2018-12-13T08:06:21.178Z,1.20
2018-12-13T08:08:48.674Z,1.00
2018-12-13T08:11:16.155Z,1.00
2018-12-13T08:13:43.642Z,1.00
2018-12-13T08:16:11.114Z,1.00
2018-12-13T08:18:38.579Z,1.30
2018-12-13T08:21:06.053Z,1.40
2018-12-13T08:23:33.524Z,1.30
2018-12-13T08:26:01.013Z,1.50
2018-12-13T08:28:28.481Z,1.70
2018-12-13T08:30:55.971Z,1.60
2018-12-13T08:33:23.432Z,1.30
2018-12-13T08:35:51.753Z,1.20
2018-12-13T08:38:19.256Z,1.40
2018-12-13T08:40:46.716Z,1.50
2018-12-13T08:43:14.201Z,1.50
2018-12-13T08:45:41.661Z,1.40
2018-12-13T08:48:09.133Z,1.50
2018-12-13T08:50:36.616Z,1.50
2018-12-13T08:53:04.099Z,1.60
2018-12-13T08:55:31.570Z,1.40
2018-12-13T08:57:59.181Z,1.50
2018-12-13T09:00:26.655Z,1.30
2018-12-13T09:02:54.128Z,1.40
2018-12-13T09:05:21.585Z,1.50
2018-12-13T09:07:49.072Z,1.80
2018-12-13T09:10:16.564Z,1.40
2018-12-13T09:12:44.026Z,1.40
2018-12-13T09:15:11.497Z,1.60
2018-12-13T09:17:38.959Z,1.40
2018-12-13T09:20:06.661Z,1.50
2018-12-13T09:22:34.139Z,1.30
2018-12-13T09:25:01.626Z,1.30
2018-12-13T09:27:29.280Z,1.50
2018-12-13T09:29:56.753Z,1.60
2018-12-13T09:32:24.222Z,1.80
2018-12-13T09:34:51.703Z,1.80
2018-12-13T09:37:19.174Z,1.90
2018-12-13T09:39:46.648Z,2.00
2018-12-13T09:42:14.113Z,1.80
2018-12-13T09:44:41.593Z,1.70
2018-12-13T09:47:09.054Z,1.70
2018-12-13T09:49:36.542Z,1.70
2018-12-13T09:52:04.075Z,1.70
2018-12-13T09:54:31.565Z,1.80
2018-12-13T09:56:59.070Z,1.80
2018-12-13T09:59:26.558Z,1.80
2018-12-13T10:01:54.019Z,1.60
2018-12-13T10:04:21.506Z,1.70
2018-12-13T10:06:48.974Z,1.70
2018-12-13T10:09:16.464Z,1.90
2018-12-13T10:11:43.927Z,2.00
2018-12-13T10:14:11.418Z,1.80
2018-12-13T10:16:38.898Z,1.80
2018-12-13T10:19:06.379Z,2.00
2018-12-13T10:21:33.837Z,1.90
2018-12-13T10:24:01.319Z,1.60
2018-12-13T10:26:28.874Z,1.80
2018-12-13T10:28:56.362Z,2.30
2018-12-13T10:31:23.826Z,1.70
2018-12-13T10:33:51.363Z,1.60
2018-12-13T10:36:19.704Z,1.50
2018-12-13T10:38:52.770Z,1.60
2018-12-13T10:41:16.762Z,1.60
2018-12-13T10:43:44.254Z,1.70
2018-12-13T10:46:11.781Z,1.80
2018-12-13T10:48:39.263Z,1.70
2018-12-13T10:51:06.726Z,1.70
2018-12-13T10:53:34.263Z,1.70
2018-12-13T10:56:01.742Z,1.60
2018-12-13T10:58:29.205Z,1.70
2018-12-13T11:01:02.359Z,1.70
2018-12-13T11:03:35.849Z,1.80
2018-12-13T11:06:03.448Z,1.90
2018-12-13T11:08:31.004Z,2.00
2018-12-13T11:10:58.485Z,2.00
2018-12-13T11:13:26.079Z,2.10
2018-12-13T11:15:53.608Z,2.60
2018-12-13T11:18:21.083Z,2.40
2018-12-13T11:20:48.563Z,2.30
2018-12-13T11:23:16.031Z,2.70
2018-12-13T11:25:43.491Z,2.50
2018-12-13T11:31:14.499Z,2.30
2018-12-13T11:33:41.972Z,2.40
2018-12-13T11:36:09.444Z,2.30
2018-12-13T11:38:36.908Z,2.20
2018-12-13T11:41:04.401Z,2.00
2018-12-13T11:43:31.919Z,2.10
2018-12-13T11:45:59.424Z,2.40
2018-12-13T11:48:26.898Z,2.40
2018-12-13T11:50:54.455Z,2.50
2018-12-13T11:53:21.986Z,2.50
2018-12-13T11:55:49.515Z,2.60
2018-12-13T11:58:17.050Z,2.50
2018-12-13T12:00:44.589Z,2.40
2018-12-13T12:03:12.080Z,2.20
2018-12-13T12:05:39.556Z,2.60
2018-12-13T12:08:07.004Z,2.30
2018-12-13T12:10:34.544Z,2.40
2018-12-13T12:13:02.009Z,2.60
2018-12-13T12:15:29.502Z,2.40
2018-12-13T12:17:56.977Z,2.30
2018-12-13T12:20:24.467Z,2.20
2018-12-13T12:22:51.925Z,2.30
2018-12-13T12:25:19.400Z,2.10
2018-12-13T12:27:46.890Z,2.40
2018-12-13T12:30:14.359Z,2.30
2018-12-13T12:32:42.479Z,2.30
2018-12-13T12:35:09.967Z,2.20
2018-12-13T12:37:37.431Z,2.20
2018-12-13T12:40:06.319Z,2.20
2018-12-13T12:42:33.840Z,2.20
2018-12-13T12:45:01.297Z,2.20
2018-12-13T12:47:28.988Z,2.10
2018-12-13T12:49:56.453Z,2.20
2018-12-13T12:52:24.647Z,2.20
2018-12-13T12:54:52.109Z,2.20
2018-12-13T12:57:19.660Z,2.10
2018-12-13T12:59:47.124Z,2.10
2018-12-13T13:02:14.604Z,2.30
2018-12-13T13:04:42.088Z,2.30
2018-12-13T13:07:09.560Z,2.10
2018-12-13T13:09:37.038Z,2.00
2018-12-13T13:12:04.580Z,2.10
2018-12-13T13:14:32.059Z,2.20
2018-12-13T13:16:59.668Z,1.90
2018-12-13T13:19:27.151Z,2.10
2018-12-13T13:21:54.611Z,2.10
2018-12-13T13:24:22.100Z,2.10
2018-12-13T13:26:49.619Z,2.00
2018-12-13T13:29:17.078Z,2.00
2018-12-13T13:31:44.611Z,2.20
2018-12-13T13:34:12.097Z,2.30
2018-12-13T13:36:39.637Z,2.20
2018-12-13T13:39:07.215Z,2.30
2018-12-13T13:41:34.701Z,2.10
2018-12-13T13:44:02.167Z,2.10
2018-12-13T13:46:29.737Z,2.20
2018-12-13T13:48:57.205Z,2.30
2018-12-13T13:51:24.691Z,2.30
2018-12-13T13:53:52.166Z,2.20
2018-12-13T13:56:19.683Z,2.10
2018-12-13T13:58:47.174Z,2.20
2018-12-13T14:01:14.634Z,2.20
2018-12-13T14:03:42.104Z,2.10
2018-12-13T14:06:09.576Z,2.30
2018-12-13T14:08:37.199Z,2.20
2018-12-13T14:11:04.724Z,2.10
2018-12-13T14:13:32.206Z,2.20
2018-12-13T14:15:59.680Z,2.20
2018-12-13T14:18:27.147Z,2.30
2018-12-13T14:20:54.623Z,2.10
2018-12-13T14:23:22.092Z,2.00
2018-12-13T14:25:49.576Z,1.90
2018-12-13T14:28:17.973Z,2.30
2018-12-13T14:30:45.464Z,2.20
2018-12-13T14:33:12.929Z,2.20
2018-12-13T14:35:40.429Z,2.00
2018-12-13T14:38:07.916Z,2.30
2018-12-13T14:40:35.381Z,2.20
2018-12-13T14:43:02.857Z,2.10
2018-12-13T14:45:30.320Z,2.10
2018-12-13T14:47:57.806Z,2.00
2018-12-13T14:50:25.274Z,2.10
2018-12-13T14:52:52.757Z,2.00
2018-12-13T14:55:20.235Z,2.30
2018-12-13T14:57:47.867Z,2.10
2018-12-13T15:00:15.465Z,2.00
2018-12-13T15:02:42.963Z,2.10
2018-12-13T15:05:10.905Z,2.00
2018-12-13T15:07:38.388Z,2.00
2018-12-13T15:10:05.925Z,2.10
2018-12-13T15:12:34.125Z,2.10
2018-12-13T15:15:01.685Z,2.00
2018-12-13T15:17:29.144Z,1.90
2018-12-13T15:19:56.620Z,1.90
2018-12-13T15:22:24.109Z,2.00
2018-12-13T15:24:51.593Z,2.10
2018-12-13T15:27:19.178Z,2.10
2018-12-13T15:29:46.641Z,2.00
2018-12-13T15:32:14.136Z,2.00
2018-12-13T15:34:41.609Z,1.90
2018-12-13T15:37:09.101Z,1.90
2018-12-13T15:39:36.599Z,2.10
2018-12-13T15:42:04.197Z,2.40
2018-12-13T15:44:31.662Z,2.30
2018-12-13T15:46:59.145Z,2.20
2018-12-13T15:49:26.640Z,2.00
2018-12-13T15:51:54.127Z,2.10
2018-12-13T15:54:21.604Z,2.30
2018-12-13T15:56:50.175Z,2.20
2018-12-13T15:59:17.644Z,2.10
2018-12-13T16:01:45.126Z,2.10
2018-12-13T16:04:12.606Z,2.10
2018-12-13T16:06:40.074Z,2.30
2018-12-13T16:09:08.500Z,2.10
2018-12-13T16:11:35.958Z,2.30
2018-12-13T16:14:03.484Z,2.40
2018-12-13T16:16:30.956Z,2.40
2018-12-13T16:18:58.419Z,2.40
2018-12-13T16:21:25.961Z,2.20
2018-12-13T16:23:53.445Z,2.10
2018-12-13T16:26:20.916Z,2.00
2018-12-13T16:28:48.441Z,2.20
2018-12-13T16:31:15.925Z,2.20
2018-12-13T16:33:43.406Z,2.10
2018-12-13T16:36:10.875Z,2.00
2018-12-13T16:38:38.364Z,2.00
2018-12-13T16:41:05.879Z,2.00
2018-12-13T16:43:33.725Z,1.90
2018-12-13T16:46:01.371Z,2.00
2018-12-13T16:48:28.932Z,1.90
2018-12-13T16:50:56.405Z,1.90
2018-12-13T16:53:23.886Z,1.90
2018-12-13T16:55:51.374Z,2.20
2018-12-13T16:58:18.911Z,2.00
2018-12-13T17:00:46.397Z,1.90
2018-12-13T17:03:25.752Z,2.00
2018-12-13T17:05:53.232Z,1.90
2018-12-13T17:08:20.708Z,2.00
2018-12-13T17:10:48.747Z,2.00
2018-12-13T17:13:16.272Z,1.90
2018-12-13T17:15:43.803Z,1.90
2018-12-13T17:18:11.289Z,2.00
2018-12-13T17:20:38.773Z,2.00
2018-12-13T17:23:06.268Z,1.80
2018-12-13T17:25:33.749Z,1.90
2018-12-13T17:28:01.210Z,1.80
2018-12-13T17:30:28.757Z,1.80
2018-12-13T17:32:56.236Z,1.90
2018-12-13T17:35:23.764Z,2.20
2018-12-13T17:37:51.276Z,2.10
2018-12-13T17:40:23.015Z,2.00
2018-12-13T17:42:48.308Z,2.00
2018-12-13T17:45:15.802Z,2.00
2018-12-13T17:47:43.435Z,1.90
2018-12-13T17:50:10.903Z,1.80
2018-12-13T17:52:38.403Z,1.80
2018-12-13T17:55:07.591Z,1.70
2018-12-13T17:57:35.151Z,1.70
2018-12-13T18:00:03.450Z,1.90
2018-12-13T18:02:30.932Z,1.90
2018-12-13T18:04:58.400Z,1.70
2018-12-13T18:07:25.905Z,1.70
2018-12-13T18:09:53.382Z,1.80
2018-12-13T18:12:20.876Z,1.80
2018-12-13T18:14:48.348Z,1.80
2018-12-13T18:17:15.821Z,1.70
2018-12-13T18:19:43.317Z,1.80
2018-12-13T18:22:10.801Z,1.90
2018-12-13T18:24:38.273Z,1.90
2018-12-13T18:27:05.748Z,1.80
2018-12-13T18:29:33.839Z,1.80
2018-12-13T18:32:01.306Z,1.90
2018-12-13T18:34:28.790Z,1.70
2018-12-13T18:36:56.413Z,1.90
2018-12-13T18:39:23.901Z,2.00
2018-12-13T18:41:51.394Z,1.90
2018-12-13T18:44:18.887Z,1.90
2018-12-13T18:46:46.409Z,2.00
2018-12-13T18:49:13.982Z,1.80
2018-12-13T18:51:41.519Z,2.00
2018-12-13T18:54:09.025Z,2.10
2018-12-13T18:56:36.586Z,1.80
2018-12-13T18:59:04.135Z,1.70
2018-12-13T19:01:31.615Z,1.80
2018-12-13T19:03:59.111Z,1.90
2018-12-13T19:06:26.963Z,1.80
2018-12-13T19:08:54.451Z,1.70
2018-12-13T19:11:21.931Z,1.70
2018-12-13T19:13:49.439Z,1.60
2018-12-13T19:16:16.929Z,1.60
2018-12-13T19:18:44.425Z,1.70
2018-12-13T19:21:11.897Z,1.70
2018-12-13T19:23:39.371Z,1.70
2018-12-13T19:26:06.889Z,1.80
2018-12-13T19:28:34.686Z,1.80
2018-12-13T19:31:02.262Z,1.90
2018-12-13T19:33:30.053Z,1.70
2018-12-13T19:35:57.529Z,1.60
2018-12-13T19:38:25.047Z,1.70
2018-12-13T19:40:52.537Z,1.80
2018-12-13T19:43:20.025Z,1.80
2018-12-13T19:45:47.506Z,1.70
2018-12-13T19:48:14.962Z,1.70
2018-12-13T19:50:42.995Z,1.80
2018-12-13T19:53:11.033Z,1.60
2018-12-13T19:55:38.527Z,1.70
2018-12-13T19:58:06.180Z,1.80
2018-12-13T20:00:34.500Z,1.70
2018-12-13T20:03:01.991Z,1.80
2018-12-13T20:05:29.466Z,1.70
2018-12-13T20:07:56.935Z,1.80
2018-12-13T20:10:24.409Z,1.80
2018-12-13T20:12:51.894Z,1.80
2018-12-13T20:15:24.057Z,1.90
2018-12-13T20:17:48.865Z,1.70
2018-12-13T20:20:16.361Z,1.70
2018-12-13T20:22:43.850Z,1.80
2018-12-13T20:25:11.374Z,1.70
2018-12-13T20:27:40.292Z,1.60
2018-12-13T20:30:08.273Z,1.70
2018-12-13T20:32:35.788Z,1.70
2018-12-13T20:35:04.669Z,1.70
2018-12-13T20:37:32.369Z,1.70
2018-12-13T20:40:00.682Z,1.70
2018-12-13T20:42:28.178Z,1.70
2018-12-13T20:44:55.669Z,1.70
2018-12-13T20:47:23.157Z,1.60
2018-12-13T20:49:50.644Z,1.50
2018-12-13T20:52:18.149Z,1.70
2018-12-13T20:54:45.711Z,1.60
2018-12-13T20:57:14.377Z,1.50
2018-12-13T20:59:41.875Z,1.50
2018-12-13T21:02:09.340Z,1.50
2018-12-13T21:04:36.836Z,1.60
2018-12-13T21:07:09.932Z,1.60
2018-12-13T21:09:37.404Z,1.60
2018-12-13T21:12:04.888Z,1.60
2018-12-13T21:14:32.387Z,1.70
2018-12-13T21:17:00.217Z,1.60
2018-12-13T21:19:27.840Z,1.60
2018-12-13T21:21:55.351Z,1.70
2018-12-13T21:24:22.851Z,1.60
2018-12-13T21:26:50.340Z,1.70
2018-12-13T21:29:17.813Z,1.60
2018-12-13T21:31:45.284Z,1.60
2018-12-13T21:34:12.761Z,1.60
2018-12-13T21:36:40.256Z,1.70
2018-12-13T21:39:07.744Z,1.70
2018-12-13T21:41:35.216Z,1.70
2018-12-13T21:44:02.792Z,1.60
2018-12-13T21:46:30.270Z,1.70
2018-12-13T21:48:57.827Z,1.60
2018-12-13T21:51:25.311Z,1.50
2018-12-13T21:53:52.824Z,1.80
2018-12-13T21:56:20.289Z,1.60
2018-12-13T21:58:47.769Z,1.60
2018-12-13T22:01:15.253Z,1.70
2018-12-13T22:03:42.743Z,1.50
2018-12-13T22:06:10.229Z,1.60
2018-12-13T22:08:37.730Z,1.50
2018-12-13T22:11:05.309Z,1.60
2018-12-13T22:13:33.706Z,1.60
2018-12-13T22:16:02.146Z,1.60
2018-12-13T22:18:29.901Z,1.50
2018-12-13T22:20:57.406Z,1.60
2018-12-13T22:23:24.892Z,1.50
2018-12-13T22:25:52.381Z,1.50
2018-12-13T22:28:19.870Z,1.50
2018-12-13T22:30:47.378Z,1.40
2018-12-13T22:33:14.880Z,1.40
2018-12-13T22:35:42.358Z,1.40
2018-12-13T22:38:09.846Z,1.40
2018-12-13T22:40:37.332Z,1.50
2018-12-13T22:43:04.964Z,1.40
2018-12-13T22:45:32.444Z,1.40
2018-12-13T22:47:59.934Z,1.50
2018-12-13T22:50:27.418Z,1.50
2018-12-13T22:52:54.903Z,1.50
2018-12-13T22:55:22.383Z,1.60
2018-12-13T22:57:49.911Z,1.60
2018-12-13T23:00:17.615Z,1.60
2018-12-13T23:02:45.121Z,1.60
2018-12-13T23:05:12.667Z,1.60
2018-12-13T23:07:40.151Z,1.60
2018-12-13T23:10:07.772Z,1.60
2018-12-13T23:12:35.676Z,1.50
2018-12-13T23:15:03.377Z,1.50
2018-12-13T23:17:30.926Z,1.50
2018-12-13T23:19:58.397Z,1.60
2018-12-13T23:22:25.879Z,1.70
2018-12-13T23:24:53.365Z,1.60
2018-12-13T23:27:21.860Z,1.50
2018-12-13T23:29:49.417Z,1.50
2018-12-13T23:32:16.897Z,1.70
2018-12-13T23:34:44.367Z,1.70
2018-12-13T23:37:11.873Z,1.60
2018-12-13T23:39:39.353Z,1.60
2018-12-13T23:42:06.849Z,1.60
2018-12-13T23:44:34.327Z,1.60
2018-12-13T23:47:01.800Z,1.60
2018-12-13T23:49:29.297Z,1.70
2018-12-13T23:51:56.965Z,1.60
2018-12-13T23:54:24.732Z,1.60
2018-12-13T23:56:52.401Z,1.70
2018-12-13T23:59:19.995Z,1.60
